Time;durP1;ratioP1;P1;durP2;ratioP2;P2;SDS_P1;SDS_P2;PMS_P1;PMS_P2;Temp;Humidity;BMP_temperature;BMP_pressure;BME280_temperature;BME280_humidity;BME280_pressure;Samples;Min_cycle;Max_cycle;Signal;HPM_P1;HPM_P2
2022/05/15 00:01:03;;;;;;;10.07;4.60;;;19.90;99.90;;;;;;1043322;28;20036;-71
2022/05/15 00:01:34;;;;;;;6.28;3.22;;;19.90;99.90;;;;;;1043173;28;20008;-71
2022/05/15 00:02:04;;;;;;;9.20;3.70;;;19.90;99.90;;;;;;1042594;28;20653;-73
2022/05/15 00:02:35;;;;;;;8.23;2.83;;;19.90;99.90;;;;;;1043336;28;20400;-72
2022/05/15 00:03:19;;;;;;;7.97;3.78;;;19.90;99.90;;;;;;1042515;28;20028;-72
2022/05/15 00:03:50;;;;;;;11.82;3.08;;;19.90;99.90;;;;;;1042510;28;20037;-71
2022/05/15 00:04:21;;;;;;;8.80;3.30;;;19.90;99.90;;;;;;1042941;28;20711;-72
2022/05/15 00:04:51;;;;;;;7.83;3.27;;;19.90;99.90;;;;;;1043135;28;20041;-73
2022/05/15 00:05:22;;;;;;;8.57;3.50;;;19.90;99.90;;;;;;1043318;28;20303;-72
2022/05/15 00:05:57;;;;;;;8.73;3.80;;;19.90;99.90;;;;;;1042763;28;20021;-71
2022/05/15 00:06:27;;;;;;;9.15;3.75;;;19.90;99.90;;;;;;1042974;28;20155;-71
2022/05/15 00:06:58;;;;;;;6.60;3.37;;;19.90;99.90;;;;;;1043023;28;20079;-72
2022/05/15 00:07:29;;;;;;;9.33;3.60;;;19.90;99.90;;;;;;1039018;28;20370;-72
2022/05/15 00:08:01;;;;;;;8.70;3.80;;;19.80;99.90;;;;;;1034291;28;20068;-72
2022/05/15 00:08:34;;;;;;;7.88;3.42;;;19.80;99.90;;;;;;1034422;28;20013;-72
2022/05/15 00:09:05;;;;;;;9.93;3.80;;;19.90;99.90;;;;;;1038897;28;20996;-72
2022/05/15 00:09:36;;;;;;;13.43;4.57;;;19.90;99.90;;;;;;1038892;28;20065;-72
2022/05/15 00:10:07;;;;;;;7.60;3.77;;;19.90;99.90;;;;;;1038871;28;20108;-72
2022/05/15 00:10:40;;;;;;;9.73;4.47;;;19.80;99.90;;;;;;1039016;28;20256;-72
2022/05/15 00:11:18;;;;;;;6.05;2.72;;;19.80;99.90;;;;;;1040003;28;20420;-72
2022/05/15 00:11:49;;;;;;;10.02;4.50;;;19.80;99.90;;;;;;1042810;28;20143;-72
2022/05/15 00:12:20;;;;;;;11.40;3.85;;;19.80;99.90;;;;;;1043056;28;20017;-72
2022/05/15 00:12:51;;;;;;;8.07;3.53;;;19.80;99.90;;;;;;1043051;28;20043;-71
2022/05/15 00:13:23;;;;;;;8.90;3.43;;;19.80;99.90;;;;;;1043321;28;20123;-73
2022/05/15 00:13:57;;;;;;;7.63;3.30;;;19.80;99.90;;;;;;1042827;28;20028;-72
2022/05/15 00:14:27;;;;;;;6.72;3.75;;;19.80;99.90;;;;;;1042688;28;20467;-71
2022/05/15 00:14:58;;;;;;;8.33;3.47;;;19.80;99.90;;;;;;1043125;28;20513;-71
2022/05/15 00:15:31;;;;;;;9.20;3.50;;;19.80;99.90;;;;;;1043060;28;20017;-72
2022/05/15 00:16:02;;;;;;;7.00;3.28;;;19.80;99.90;;;;;;1043429;28;20052;-72
2022/05/15 00:16:33;;;;;;;8.63;3.72;;;19.80;99.90;;;;;;1043347;28;20676;-72
2022/05/15 00:17:04;;;;;;;9.67;3.77;;;19.80;99.90;;;;;;1043184;28;20676;-71
2022/05/15 00:17:34;;;;;;;11.30;4.60;;;19.80;99.90;;;;;;1043507;28;20758;-71
2022/05/15 00:18:06;;;;;;;7.63;3.83;;;19.80;99.90;;;;;;1043348;28;20036;-71
2022/05/15 00:18:38;;;;;;;10.85;3.78;;;19.80;99.90;;;;;;1043186;28;20027;-71
2022/05/15 00:19:09;;;;;;;8.15;3.58;;;19.80;99.90;;;;;;1043343;28;20091;-72
2022/05/15 00:19:40;;;;;;;7.53;3.15;;;19.80;99.90;;;;;;1043328;28;20017;-75
2022/05/15 00:20:10;;;;;;;6.43;2.93;;;19.80;99.90;;;;;;1043267;28;20013;-70
2022/05/15 00:20:41;;;;;;;9.60;3.50;;;19.80;99.90;;;;;;1043426;28;20013;-73
2022/05/15 00:21:13;;;;;;;8.77;3.70;;;19.80;99.90;;;;;;1042963;28;20408;-71
2022/05/15 00:21:43;;;;;;;7.22;3.08;;;19.80;99.90;;;;;;1043165;28;20013;-72
2022/05/15 00:22:14;;;;;;;10.90;3.63;;;19.80;99.90;;;;;;1043377;28;20017;-71
2022/05/15 00:22:45;;;;;;;8.37;3.87;;;19.80;99.90;;;;;;1043181;28;20032;-74
2022/05/15 00:23:17;;;;;;;8.23;3.70;;;19.80;99.90;;;;;;1043474;28;20013;-70
2022/05/15 00:23:47;;;;;;;7.20;3.08;;;19.80;99.90;;;;;;1042649;28;20025;-71
2022/05/15 00:24:18;;;;;;;9.60;3.80;;;19.80;99.90;;;;;;1043189;28;20017;-73
2022/05/15 00:24:49;;;;;;;8.03;3.43;;;19.80;99.90;;;;;;1042846;28;20107;-73
2022/05/15 00:25:20;;;;;;;11.10;4.03;;;19.80;99.90;;;;;;1042789;28;20036;-72
2022/05/15 00:25:51;;;;;;;7.20;3.42;;;19.80;99.90;;;;;;1043029;28;20048;-72
2022/05/15 00:26:21;;;;;;;10.43;3.40;;;19.80;99.90;;;;;;1038806;28;20114;-74
2022/05/15 00:26:52;;;;;;;7.00;3.70;;;19.80;99.90;;;;;;1038901;28;20025;-71
2022/05/15 00:27:22;;;;;;;10.47;3.63;;;19.80;99.90;;;;;;1039097;28;20155;-71
2022/05/15 00:27:53;;;;;;;5.83;2.93;;;19.70;99.90;;;;;;1038989;28;20067;-71
2022/05/15 00:28:24;;;;;;;9.93;4.33;;;19.70;99.90;;;;;;1038607;28;20116;-71
2022/05/15 00:28:54;;;;;;;8.10;3.30;;;19.70;99.90;;;;;;1038961;28;20022;-72
2022/05/15 00:29:25;;;;;;;8.73;3.57;;;19.70;99.90;;;;;;1038512;28;20035;-71
2022/05/15 00:29:56;;;;;;;8.57;4.17;;;19.70;99.90;;;;;;1038853;28;20484;-72
2022/05/15 00:30:27;;;;;;;7.83;3.43;;;19.70;99.90;;;;;;1038660;28;20511;-72
2022/05/15 00:30:57;;;;;;;5.93;3.22;;;19.70;99.90;;;;;;1038845;28;20643;-72
2022/05/15 00:31:28;;;;;;;7.93;3.77;;;19.70;99.90;;;;;;1038668;28;20477;-72
2022/05/15 00:31:58;;;;;;;6.67;3.30;;;19.70;99.90;;;;;;1038925;28;20080;-72
2022/05/15 00:32:29;;;;;;;6.07;3.30;;;19.70;99.90;;;;;;1038965;28;20104;-72
2022/05/15 00:32:59;;;;;;;10.63;3.17;;;19.70;99.90;;;;;;1039038;28;20021;-73
2022/05/15 00:33:30;;;;;;;6.60;3.20;;;19.70;99.90;;;;;;1038435;28;20597;-72
2022/05/15 00:34:00;;;;;;;7.73;3.37;;;19.70;99.90;;;;;;1038876;28;20112;-73
2022/05/15 00:34:31;;;;;;;7.77;3.87;;;19.70;99.90;;;;;;1038754;28;20049;-73
2022/05/15 00:35:01;;;;;;;8.50;3.60;;;19.70;99.90;;;;;;1042753;28;20024;-73
2022/05/15 00:35:35;;;;;;;10.07;4.40;;;19.70;99.90;;;;;;1039557;28;20018;-72
2022/05/15 00:36:06;;;;;;;7.55;3.35;;;19.70;99.90;;;;;;1043433;28;20762;-72
2022/05/15 00:36:36;;;;;;;8.20;3.57;;;19.70;99.90;;;;;;1043042;28;20785;-72
2022/05/15 00:37:07;;;;;;;8.97;3.90;;;19.70;99.90;;;;;;1043379;28;20017;-73
2022/05/15 00:37:38;;;;;;;10.73;3.73;;;19.70;99.90;;;;;;1042739;28;20059;-72
2022/05/15 00:38:10;;;;;;;11.07;4.60;;;19.70;99.90;;;;;;1042853;28;20067;-72
2022/05/15 00:38:41;;;;;;;7.63;3.10;;;19.70;99.90;;;;;;1042570;28;20028;-72
2022/05/15 00:39:11;;;;;;;9.13;3.47;;;19.70;99.90;;;;;;1042852;28;20036;-72
2022/05/15 00:39:42;;;;;;;7.00;3.30;;;19.70;99.90;;;;;;1042777;28;20013;-72
2022/05/15 00:40:16;;;;;;;7.77;4.17;;;19.70;99.90;;;;;;1043072;28;20041;-73
2022/05/15 00:40:48;;;;;;;7.93;3.53;;;19.70;99.90;;;;;;1042901;28;20017;-74
2022/05/15 00:41:19;;;;;;;7.38;3.10;;;19.60;99.90;;;;;;1043598;28;20016;-73
2022/05/15 00:41:49;;;;;;;7.93;3.63;;;19.60;99.90;;;;;;1043030;28;20032;-73
2022/05/15 00:42:20;;;;;;;7.80;3.23;;;19.60;99.90;;;;;;1043463;28;20104;-73
2022/05/15 00:42:51;;;;;;;7.40;3.37;;;19.60;99.90;;;;;;1042612;28;20031;-73
2022/05/15 00:43:36;;;;;;;11.37;4.13;;;19.60;99.90;;;;;;1039436;28;20028;-74
2022/05/15 00:44:08;;;;;;;7.78;2.95;;;19.60;99.90;;;;;;1038334;28;20064;-73
2022/05/15 00:44:38;;;;;;;8.30;3.83;;;19.60;99.90;;;;;;1039165;28;20018;-74
2022/05/15 00:45:10;;;;;;;5.97;2.70;;;19.60;99.90;;;;;;1038639;28;20116;-73
2022/05/15 00:45:41;;;;;;;7.63;3.33;;;19.60;99.90;;;;;;1038900;28;20095;-74
2022/05/15 00:46:17;;;;;;;10.80;4.63;;;19.60;99.90;;;;;;1038967;28;20139;-73
2022/05/15 00:46:47;;;;;;;9.48;3.97;;;19.60;99.90;;;;;;1039217;28;20022;-74
2022/05/15 00:47:18;;;;;;;9.07;3.23;;;19.60;99.90;;;;;;1038675;28;20025;-73
2022/05/15 00:47:50;;;;;;;11.33;4.07;;;19.60;99.90;;;;;;1038678;28;20637;-73
2022/05/15 00:48:20;;;;;;;8.77;3.53;;;19.60;99.90;;;;;;1038744;28;20080;-73
2022/05/15 00:48:52;;;;;;;7.03;3.20;;;19.60;99.90;;;;;;1038763;28;20025;-73
2022/05/15 00:49:22;;;;;;;9.00;3.78;;;19.60;99.90;;;;;;1039073;28;20650;-73
2022/05/15 00:49:54;;;;;;;8.57;3.33;;;19.60;99.90;;;;;;1039167;28;20449;-73
2022/05/15 00:50:29;;;;;;;11.20;3.38;;;19.60;99.90;;;;;;1038885;28;20039;-73
2022/05/15 00:51:05;;;;;;;6.97;3.50;;;19.60;99.90;;;;;;1039361;28;20057;-73
2022/05/15 00:51:57;;;;;;;8.25;3.30;;;19.50;99.90;;;;;;1038605;28;20033;-74
2022/05/15 00:52:33;;;;;;;9.55;3.80;;;19.50;99.90;;;;;;1038577;28;20021;-73
2022/05/15 00:53:08;;;;;;;9.13;3.35;;;19.50;99.90;;;;;;1038633;28;20558;-73
2022/05/15 00:53:40;;;;;;;7.75;3.33;;;19.60;99.90;;;;;;1042112;28;20062;-73
2022/05/15 00:54:29;;;;;;;8.82;3.67;;;19.50;99.90;;;;;;1042930;28;20020;-73
2022/05/15 00:55:05;;;;;;;9.13;3.28;;;19.60;99.90;;;;;;1043435;28;20013;-75
2022/05/15 00:55:40;;;;;;;9.75;3.85;;;19.50;99.90;;;;;;1043082;28;20107;-74
2022/05/15 00:56:12;;;;;;;6.95;3.05;;;19.50;99.90;;;;;;1042887;28;20037;-74
2022/05/15 00:56:53;;;;;;;10.30;4.13;;;19.50;99.90;;;;;;1042625;28;20021;-75
2022/05/15 00:57:32;;;;;;;8.52;4.07;;;19.50;99.90;;;;;;1042885;28;20014;-73
2022/05/15 00:58:14;;;;;;;8.43;3.78;;;19.50;99.90;;;;;;1043029;28;20021;-73
2022/05/15 00:58:52;;;;;;;8.63;3.90;;;19.50;99.90;;;;;;1042403;28;20025;-76
2022/05/15 00:59:26;;;;;;;9.90;3.38;;;19.50;99.90;;;;;;1042835;28;20028;-74
2022/05/15 01:00:06;;;;;;;9.68;3.42;;;19.50;99.90;;;;;;1038412;28;20028;-74
2022/05/15 01:00:40;;;;;;;8.65;3.65;;;19.50;99.90;;;;;;1038765;28;20026;-73
2022/05/15 01:01:10;;;;;;;10.25;3.85;;;19.50;99.90;;;;;;1041170;28;20013;-73
2022/05/15 01:01:41;;;;;;;11.30;3.20;;;19.50;99.90;;;;;;1040604;28;20025;-73
2022/05/15 01:02:14;;;;;;;9.15;3.80;;;19.50;99.90;;;;;;1042695;28;20041;-73
2022/05/15 01:03:03;;;;;;;6.85;3.25;;;19.50;99.90;;;;;;1042622;28;20017;-73
2022/05/15 01:03:34;;;;;;;6.57;3.20;;;19.50;99.90;;;;;;1040559;28;20479;-72
2022/05/15 01:04:05;;;;;;;7.27;3.13;;;19.50;99.90;;;;;;1038284;28;20710;-73
2022/05/15 01:04:36;;;;;;;9.82;4.00;;;19.50;99.90;;;;;;1037355;28;20022;-73
2022/05/15 01:05:09;;;;;;;9.88;3.47;;;19.50;99.90;;;;;;1038546;28;20109;-74
2022/05/15 01:05:43;;;;;;;7.97;3.65;;;19.50;99.90;;;;;;1034700;28;20469;-73
2022/05/15 01:06:15;;;;;;;9.85;3.40;;;19.40;99.90;;;;;;1035604;28;20025;-73
2022/05/15 01:06:46;;;;;;;8.82;3.80;;;19.40;99.90;;;;;;1034716;28;20060;-74
2022/05/15 01:07:16;;;;;;;10.53;3.80;;;19.40;99.90;;;;;;1035199;28;20072;-73
2022/05/15 01:07:47;;;;;;;8.30;3.10;;;19.50;99.90;;;;;;1042760;28;20051;-73
2022/05/15 01:08:18;;;;;;;8.13;3.40;;;19.50;99.90;;;;;;1042666;28;20047;-73
2022/05/15 01:08:49;;;;;;;8.77;4.28;;;19.50;99.90;;;;;;1043172;28;20025;-73
2022/05/15 01:09:20;;;;;;;7.93;3.25;;;19.50;99.90;;;;;;1042778;28;20052;-74
2022/05/15 01:09:51;;;;;;;7.07;3.33;;;19.40;99.90;;;;;;1043141;28;20032;-73
2022/05/15 01:10:23;;;;;;;6.82;3.10;;;19.50;99.90;;;;;;1042809;28;20185;-73
2022/05/15 01:11:08;;;;;;;8.50;4.15;;;19.50;99.90;;;;;;1038694;28;20036;-74
2022/05/15 01:11:41;;;;;;;9.05;3.45;;;19.50;99.90;;;;;;1034394;28;20037;-73
2022/05/15 01:12:13;;;;;;;9.60;3.17;;;19.50;99.90;;;;;;1037162;28;20018;-73
2022/05/15 01:12:43;;;;;;;7.43;2.97;;;19.50;99.90;;;;;;1041196;28;20048;-74
2022/05/15 01:13:15;;;;;;;9.30;3.40;;;19.50;99.90;;;;;;1039278;28;20455;-74
2022/05/15 01:13:49;;;;;;;7.60;3.40;;;19.50;99.90;;;;;;1038578;28;20116;-73
2022/05/15 01:14:20;;;;;;;6.85;3.60;;;19.50;99.90;;;;;;1034533;28;20030;-73
2022/05/15 01:14:51;;;;;;;7.53;3.33;;;19.50;99.90;;;;;;1035268;28;20033;-73
2022/05/15 01:15:25;;;;;;;9.43;3.72;;;19.40;99.90;;;;;;1039379;28;20021;-74
2022/05/15 01:15:57;;;;;;;7.43;3.42;;;19.50;99.90;;;;;;1039332;28;20588;-74
2022/05/15 01:16:27;;;;;;;8.20;3.90;;;19.40;99.90;;;;;;1038560;28;20329;-74
2022/05/15 01:16:59;;;;;;;9.23;3.93;;;19.50;99.90;;;;;;1038649;28;20394;-74
2022/05/15 01:17:29;;;;;;;6.88;3.28;;;19.40;99.90;;;;;;1038764;28;20052;-74
2022/05/15 01:18:00;;;;;;;8.50;3.47;;;19.40;99.90;;;;;;1042687;28;20678;-74
2022/05/15 01:18:33;;;;;;;7.50;3.27;;;19.40;99.90;;;;;;1043298;28;20104;-73
2022/05/15 01:19:04;;;;;;;11.30;3.70;;;19.50;99.90;;;;;;1043032;28;20534;-74
2022/05/15 01:19:37;;;;;;;10.93;3.63;;;19.40;99.90;;;;;;1042763;28;20096;-73
2022/05/15 01:20:16;;;;;;;7.90;3.33;;;19.40;99.90;;;;;;1042508;28;20029;-73
2022/05/15 01:20:46;;;;;;;9.63;4.05;;;19.40;99.90;;;;;;1042412;28;20013;-73
2022/05/15 01:21:30;;;;;;;7.40;3.93;;;19.40;99.90;;;;;;1042715;28;20021;-73
2022/05/15 01:22:01;;;;;;;9.13;3.40;;;19.40;99.90;;;;;;1042451;28;20028;-73
2022/05/15 01:22:32;;;;;;;7.95;3.63;;;19.40;99.90;;;;;;1043313;28;20063;-73
2022/05/15 01:23:03;;;;;;;11.97;3.30;;;19.40;99.90;;;;;;1042359;28;20115;-74
2022/05/15 01:23:34;;;;;;;9.07;3.70;;;19.40;99.90;;;;;;1043072;28;20384;-73
2022/05/15 01:24:07;;;;;;;10.48;3.50;;;19.40;99.90;;;;;;1042282;28;20029;-72
2022/05/15 01:24:38;;;;;;;9.57;3.05;;;19.40;99.90;;;;;;1042818;28;20436;-73
2022/05/15 01:25:17;;;;;;;8.60;3.50;;;19.30;99.90;;;;;;1042544;28;20116;-73
2022/05/15 01:25:48;;;;;;;8.93;3.97;;;19.30;99.90;;;;;;1042781;28;20053;-73
2022/05/15 01:26:21;;;;;;;8.57;3.63;;;19.30;99.90;;;;;;1042746;28;20025;-72
2022/05/15 01:26:52;;;;;;;9.40;3.38;;;19.30;99.90;;;;;;1042937;28;20060;-72
2022/05/15 01:27:22;;;;;;;11.37;4.27;;;19.30;99.90;;;;;;1043008;28;20021;-73
2022/05/15 01:28:15;;;;;;;13.80;4.10;;;19.30;99.90;;;;;;1042477;28;20259;-72
2022/05/15 01:28:46;;;;;;;8.27;3.72;;;19.30;99.90;;;;;;1039162;28;20013;-73
2022/05/15 01:29:26;;;;;;;8.00;3.57;;;19.30;99.90;;;;;;1038335;28;20032;-72
2022/05/15 01:29:56;;;;;;;7.68;3.30;;;19.30;99.90;;;;;;1038775;28;20034;-74
2022/05/15 01:30:28;;;;;;;6.43;3.80;;;19.30;99.90;;;;;;1038345;28;20041;-73
2022/05/15 01:30:58;;;;;;;8.50;3.72;;;19.30;99.90;;;;;;1038920;28;20087;-73
2022/05/15 01:31:29;;;;;;;7.63;3.47;;;19.30;99.90;;;;;;1038361;28;20055;-73
2022/05/15 01:32:00;;;;;;;7.63;3.55;;;19.30;99.90;;;;;;1040938;28;20025;-73
2022/05/15 01:32:32;;;;;;;9.70;4.35;;;19.30;99.90;;;;;;1042595;28;20074;-73
2022/05/15 01:33:02;;;;;;;6.68;3.10;;;19.30;99.90;;;;;;1038922;28;20025;-73
2022/05/15 01:33:33;;;;;;;9.90;3.70;;;19.30;99.90;;;;;;1042639;28;20385;-74
2022/05/15 01:34:08;;;;;;;12.50;4.03;;;19.30;99.90;;;;;;1042818;28;20845;-74
2022/05/15 01:34:39;;;;;;;7.95;3.13;;;19.30;99.90;;;;;;1042540;28;20259;-73
2022/05/15 01:35:09;;;;;;;7.93;3.35;;;19.30;99.90;;;;;;1043078;28;20013;-73
2022/05/15 01:35:40;;;;;;;7.40;3.17;;;19.30;99.90;;;;;;1042950;28;20009;-74
2022/05/15 01:36:10;;;;;;;9.77;4.27;;;19.30;99.90;;;;;;1043246;28;20084;-73
2022/05/15 01:36:41;;;;;;;11.43;4.03;;;19.30;99.90;;;;;;1042411;28;20523;-73
2022/05/15 01:37:12;;;;;;;8.40;3.63;;;19.30;99.90;;;;;;1042938;28;20615;-73
2022/05/15 01:37:42;;;;;;;9.83;3.70;;;19.30;99.90;;;;;;1042526;28;20005;-73
2022/05/15 01:38:13;;;;;;;11.63;3.70;;;19.30;99.90;;;;;;1042930;28;20012;-74
2022/05/15 01:38:44;;;;;;;11.07;4.03;;;19.30;99.90;;;;;;1042873;28;20037;-73
2022/05/15 01:39:14;;;;;;;9.83;3.93;;;19.30;99.90;;;;;;1042205;28;20397;-73
2022/05/15 01:39:46;;;;;;;7.80;3.60;;;19.20;99.90;;;;;;1038324;28;20029;-73
2022/05/15 01:40:17;;;;;;;7.47;3.30;;;19.20;99.90;;;;;;1038693;28;20018;-74
2022/05/15 01:40:49;;;;;;;9.35;3.72;;;19.20;99.90;;;;;;1038530;28;20013;-73
2022/05/15 01:41:20;;;;;;;6.93;3.58;;;19.20;99.90;;;;;;1039014;28;20048;-72
2022/05/15 01:41:51;;;;;;;9.52;3.75;;;19.20;99.90;;;;;;1038845;28;20427;-74
2022/05/15 01:42:22;;;;;;;7.53;3.43;;;19.20;99.90;;;;;;1038480;28;20576;-73
2022/05/15 01:42:53;;;;;;;7.05;3.45;;;19.30;99.90;;;;;;1038081;28;20044;-73
2022/05/15 01:43:23;;;;;;;7.80;3.50;;;19.30;99.90;;;;;;1038785;28;20017;-73
2022/05/15 01:43:54;;;;;;;7.13;3.33;;;19.20;99.90;;;;;;1038745;28;20443;-72
2022/05/15 01:44:26;;;;;;;6.10;3.00;;;19.20;99.90;;;;;;1038553;28;20053;-74
2022/05/15 01:44:57;;;;;;;6.55;2.88;;;19.20;99.90;;;;;;1038348;28;20020;-71
2022/05/15 01:45:28;;;;;;;7.82;3.15;;;19.20;99.90;;;;;;1034587;28;20057;-71
2022/05/15 01:45:59;;;;;;;8.40;3.70;;;19.20;99.90;;;;;;1030721;28;20018;-74
2022/05/15 01:46:30;;;;;;;8.47;3.07;;;19.20;99.90;;;;;;1030833;28;20018;-72
2022/05/15 01:47:01;;;;;;;11.23;3.57;;;19.20;99.90;;;;;;1030375;28;20113;-73
2022/05/15 01:47:31;;;;;;;6.93;3.00;;;19.20;99.90;;;;;;1034992;28;20042;-71
2022/05/15 01:48:03;;;;;;;12.23;3.80;;;19.20;99.90;;;;;;1034358;28;20010;-72
2022/05/15 01:48:34;;;;;;;6.88;4.05;;;19.20;99.90;;;;;;1038953;28;20155;-72
2022/05/15 01:49:06;;;;;;;9.33;3.53;;;19.20;99.90;;;;;;1042525;28;20162;-71
2022/05/15 01:49:38;;;;;;;11.57;3.30;;;19.20;99.90;;;;;;1042954;28;20247;-74
2022/05/15 01:50:10;;;;;;;7.97;3.83;;;19.20;99.90;;;;;;1042780;28;20025;-73
2022/05/15 01:50:41;;;;;;;7.25;3.65;;;19.20;99.90;;;;;;1043171;28;20009;-73
2022/05/15 01:51:11;;;;;;;10.10;3.70;;;19.20;99.90;;;;;;1042995;28;20017;-72
2022/05/15 01:51:43;;;;;;;12.10;4.03;;;19.20;99.90;;;;;;1043166;28;20603;-72
2022/05/15 01:52:13;;;;;;;9.60;3.83;;;19.20;99.90;;;;;;1042982;28;20100;-73
2022/05/15 01:52:45;;;;;;;7.77;3.27;;;19.20;99.90;;;;;;1043076;28;20013;-71
2022/05/15 01:53:16;;;;;;;8.60;3.58;;;19.20;99.90;;;;;;1042987;28;20013;-74
2022/05/15 01:53:47;;;;;;;8.57;3.80;;;19.20;99.90;;;;;;1043213;28;20017;-73
2022/05/15 01:54:18;;;;;;;7.93;3.45;;;19.20;99.90;;;;;;1043082;28;20021;-73
2022/05/15 01:54:49;;;;;;;9.13;2.80;;;19.10;99.90;;;;;;1042531;28;20029;-73
2022/05/15 01:55:20;;;;;;;13.23;4.03;;;19.10;99.90;;;;;;1042702;28;20048;-73
2022/05/15 01:55:52;;;;;;;7.67;3.60;;;19.10;99.90;;;;;;1042622;28;20266;-73
2022/05/15 01:56:22;;;;;;;9.63;3.95;;;19.10;99.90;;;;;;1042723;28;20040;-73
2022/05/15 01:56:53;;;;;;;9.93;4.13;;;19.10;99.90;;;;;;1038406;28;20108;-73
2022/05/15 01:57:23;;;;;;;8.67;3.50;;;19.10;99.90;;;;;;1038703;28;20022;-73
2022/05/15 01:57:54;;;;;;;10.50;3.63;;;19.10;99.90;;;;;;1038438;28;20060;-73
2022/05/15 01:58:24;;;;;;;9.60;3.53;;;19.10;99.90;;;;;;1042631;28;20051;-72
2022/05/15 01:58:56;;;;;;;5.67;2.67;;;19.10;99.90;;;;;;1043356;28;20021;-74
2022/05/15 01:59:27;;;;;;;8.48;3.85;;;19.10;99.90;;;;;;1042638;28;20029;-74
2022/05/15 01:59:57;;;;;;;13.03;3.73;;;19.10;99.90;;;;;;1039000;28;20021;-74
2022/05/15 02:00:28;;;;;;;9.10;4.00;;;19.10;99.90;;;;;;1038644;28;20376;-74
2022/05/15 02:00:59;;;;;;;8.47;3.87;;;19.10;99.90;;;;;;1038415;28;20492;-74
2022/05/15 02:01:29;;;;;;;8.90;3.83;;;19.10;99.90;;;;;;1038755;28;20025;-74
2022/05/15 02:02:00;;;;;;;11.60;3.80;;;19.10;99.90;;;;;;1038366;28;20017;-74
2022/05/15 02:02:31;;;;;;;8.20;3.33;;;19.10;99.90;;;;;;1038776;28;20029;-73
2022/05/15 02:03:01;;;;;;;13.83;3.87;;;19.10;99.90;;;;;;1038322;28;20138;-75
2022/05/15 02:03:32;;;;;;;6.87;2.93;;;19.10;99.90;;;;;;1038618;28;20024;-73
2022/05/15 02:04:03;;;;;;;10.55;4.05;;;19.10;99.90;;;;;;1038693;28;20049;-73
2022/05/15 02:04:34;;;;;;;9.57;3.90;;;19.10;99.90;;;;;;1039156;28;20033;-73
2022/05/15 02:05:06;;;;;;;7.87;3.43;;;19.10;99.90;;;;;;1038566;28;20256;-74
2022/05/15 02:05:36;;;;;;;8.80;3.38;;;19.10;99.90;;;;;;1039763;28;20029;-73
2022/05/15 02:06:07;;;;;;;8.97;3.70;;;19.10;99.90;;;;;;1042720;28;20021;-73
2022/05/15 02:06:38;;;;;;;9.67;3.60;;;19.10;99.90;;;;;;1042870;28;20076;-75
2022/05/15 02:07:08;;;;;;;7.30;3.13;;;19.10;99.90;;;;;;1042445;28;20024;-72
2022/05/15 02:07:39;;;;;;;6.83;3.83;;;19.10;99.90;;;;;;1042792;28;20017;-75
2022/05/15 02:08:10;;;;;;;8.57;3.30;;;19.10;99.90;;;;;;1042385;28;20423;-72
2022/05/15 02:08:40;;;;;;;11.70;3.80;;;19.10;99.90;;;;;;1038652;28;20025;-74
2022/05/15 02:09:11;;;;;;;8.77;3.13;;;19.10;99.90;;;;;;1038843;28;20052;-74
2022/05/15 02:09:41;;;;;;;8.03;3.60;;;19.10;99.90;;;;;;1038461;28;20029;-73
2022/05/15 02:10:12;;;;;;;9.97;3.90;;;19.10;99.90;;;;;;1034200;28;20030;-74
2022/05/15 02:10:43;;;;;;;8.33;3.50;;;19.10;99.90;;;;;;1038446;28;20394;-73
2022/05/15 02:11:14;;;;;;;9.63;3.77;;;19.10;99.90;;;;;;1038503;28;20108;-73
2022/05/15 02:11:44;;;;;;;7.03;3.53;;;19.10;99.90;;;;;;1042704;28;20068;-73
2022/05/15 02:12:15;;;;;;;13.17;4.43;;;19.10;99.90;;;;;;1042733;28;20018;-73
2022/05/15 02:12:46;;;;;;;8.90;3.43;;;19.10;99.90;;;;;;1042880;28;20025;-73
2022/05/15 02:13:17;;;;;;;7.93;3.30;;;19.10;99.90;;;;;;1042857;28;20107;-72
2022/05/15 02:13:47;;;;;;;10.83;3.90;;;19.10;99.90;;;;;;1043106;28;20017;-72
2022/05/15 02:14:18;;;;;;;7.73;3.80;;;19.10;99.90;;;;;;1043116;28;20021;-73
2022/05/15 02:14:48;;;;;;;8.03;3.57;;;19.10;99.90;;;;;;1042925;28;20029;-72
2022/05/15 02:15:19;;;;;;;7.87;3.63;;;19.10;99.90;;;;;;1042807;28;20017;-73
2022/05/15 02:15:49;;;;;;;7.50;3.50;;;19.10;99.90;;;;;;1042615;28;20202;-73
2022/05/15 02:16:20;;;;;;;11.57;3.30;;;19.10;99.90;;;;;;1042659;28;20021;-73
2022/05/15 02:16:51;;;;;;;8.73;4.50;;;19.00;99.90;;;;;;1042823;28;20035;-73
2022/05/15 02:17:21;;;;;;;9.73;3.80;;;19.00;99.90;;;;;;1042593;28;20509;-73
2022/05/15 02:17:56;;;;;;;7.87;3.27;;;19.00;99.90;;;;;;1042563;28;20131;-73
2022/05/15 02:18:27;;;;;;;9.70;4.05;;;19.00;99.90;;;;;;1039052;28;20025;-72
2022/05/15 02:18:58;;;;;;;8.10;3.20;;;19.00;99.90;;;;;;1038254;28;20028;-73
2022/05/15 02:19:28;;;;;;;9.47;3.77;;;19.00;99.90;;;;;;1038756;28;20052;-73
2022/05/15 02:19:59;;;;;;;8.90;3.30;;;19.00;99.90;;;;;;1034641;28;20030;-72
2022/05/15 02:20:32;;;;;;;10.60;3.30;;;19.00;99.90;;;;;;1034533;28;20019;-72
2022/05/15 02:21:03;;;;;;;7.80;3.03;;;19.00;99.90;;;;;;1038244;28;20537;-73
2022/05/15 02:21:34;;;;;;;6.60;3.20;;;19.00;99.90;;;;;;1039004;28;20718;-75
2022/05/15 02:22:05;;;;;;;7.47;3.40;;;19.00;99.90;;;;;;1042814;28;20415;-74
2022/05/15 02:22:35;;;;;;;7.67;3.40;;;19.00;99.90;;;;;;1042733;28;20025;-73
2022/05/15 02:23:06;;;;;;;8.97;3.37;;;19.00;99.90;;;;;;1042464;28;20021;-73
2022/05/15 02:23:37;;;;;;;7.55;3.30;;;19.00;99.90;;;;;;1042823;28;20027;-73
2022/05/15 02:24:08;;;;;;;9.07;3.80;;;18.90;99.90;;;;;;1042169;28;20028;-74
2022/05/15 02:24:39;;;;;;;7.90;3.17;;;18.90;99.90;;;;;;1038670;28;20076;-75
2022/05/15 02:25:12;;;;;;;7.22;2.83;;;18.90;99.90;;;;;;1034331;28;20110;-72
2022/05/15 02:25:42;;;;;;;12.13;4.25;;;19.00;99.90;;;;;;1034805;28;20104;-73
2022/05/15 02:26:13;;;;;;;9.10;3.73;;;18.90;99.90;;;;;;1034652;28;20539;-73
2022/05/15 02:26:44;;;;;;;10.13;3.77;;;18.90;99.90;;;;;;1039061;28;20025;-73
2022/05/15 02:27:14;;;;;;;8.70;3.60;;;18.90;99.90;;;;;;1042672;28;20094;-73
2022/05/15 02:27:46;;;;;;;10.23;3.47;;;18.90;99.90;;;;;;1042722;28;20040;-75
2022/05/15 02:28:16;;;;;;;7.50;3.78;;;18.90;99.90;;;;;;1041616;28;20017;-73
2022/05/15 02:28:47;;;;;;;12.87;3.90;;;19.00;99.90;;;;;;1043071;28;20017;-73
2022/05/15 02:29:18;;;;;;;8.20;3.57;;;18.90;99.90;;;;;;1042807;28;20083;-73
2022/05/15 02:29:48;;;;;;;8.27;3.70;;;18.90;99.90;;;;;;1043295;28;20024;-74
2022/05/15 02:30:20;;;;;;;9.67;3.93;;;18.90;99.90;;;;;;1042865;28;20028;-74
2022/05/15 02:30:51;;;;;;;7.88;3.47;;;18.90;99.90;;;;;;1043279;28;20064;-74
2022/05/15 02:31:22;;;;;;;6.33;2.90;;;18.90;99.90;;;;;;1042728;28;20108;-74
2022/05/15 02:31:52;;;;;;;8.30;3.87;;;18.90;99.90;;;;;;1043714;28;20493;-75
2022/05/15 02:32:23;;;;;;;8.90;3.30;;;18.90;99.90;;;;;;1043627;28;20067;-74
2022/05/15 02:32:53;;;;;;;9.63;4.40;;;18.90;99.90;;;;;;1043885;28;20025;-74
2022/05/15 02:33:24;;;;;;;8.03;3.60;;;18.90;99.90;;;;;;1043766;28;20021;-74
2022/05/15 02:33:55;;;;;;;8.27;3.77;;;18.90;99.90;;;;;;1043867;28;20032;-73
2022/05/15 02:34:25;;;;;;;7.47;3.17;;;18.90;99.90;;;;;;1043063;28;20052;-74
2022/05/15 02:34:56;;;;;;;9.67;3.60;;;18.90;99.90;;;;;;1043801;28;20059;-74
2022/05/15 02:35:27;;;;;;;6.43;2.80;;;18.90;99.90;;;;;;1038703;28;20938;-74
2022/05/15 02:35:58;;;;;;;9.13;4.32;;;18.90;99.90;;;;;;1035597;28;20371;-73
2022/05/15 02:36:29;;;;;;;7.67;3.50;;;18.90;99.90;;;;;;1039004;28;20036;-74
2022/05/15 02:36:59;;;;;;;8.00;3.30;;;18.90;99.90;;;;;;1039457;28;20056;-74
2022/05/15 02:37:30;;;;;;;8.00;3.57;;;18.90;99.90;;;;;;1039653;28;20061;-74
2022/05/15 02:38:01;;;;;;;12.60;3.80;;;18.90;99.90;;;;;;1039127;28;20395;-75
2022/05/15 02:38:31;;;;;;;6.73;2.77;;;18.90;99.90;;;;;;1039290;28;20553;-75
2022/05/15 02:39:03;;;;;;;6.87;2.93;;;18.90;99.90;;;;;;1039312;28;20025;-74
2022/05/15 02:39:34;;;;;;;8.25;3.42;;;18.90;99.90;;;;;;1039269;28;20029;-74
2022/05/15 02:40:05;;;;;;;9.17;3.23;;;18.90;99.90;;;;;;1039843;28;20057;-73
2022/05/15 02:40:36;;;;;;;10.63;3.88;;;18.90;99.90;;;;;;1039671;28;20117;-74
2022/05/15 02:41:07;;;;;;;7.03;2.50;;;18.90;99.90;;;;;;1039022;28;20033;-74
2022/05/15 02:41:37;;;;;;;9.90;3.40;;;18.90;99.90;;;;;;1039249;28;20112;-74
2022/05/15 02:42:09;;;;;;;7.40;3.10;;;18.90;99.90;;;;;;1039234;28;20029;-73
2022/05/15 02:42:39;;;;;;;10.30;3.80;;;18.90;99.90;;;;;;1039513;28;20045;-74
2022/05/15 02:43:10;;;;;;;6.77;3.17;;;18.90;99.90;;;;;;1039237;28;20030;-73
2022/05/15 02:43:40;;;;;;;9.13;3.80;;;18.90;99.90;;;;;;1039626;28;20030;-74
2022/05/15 02:44:11;;;;;;;5.23;2.97;;;18.90;99.90;;;;;;1039611;28;20021;-73
2022/05/15 02:44:42;;;;;;;8.93;3.40;;;18.90;99.90;;;;;;1039730;28;20140;-73
2022/05/15 02:45:13;;;;;;;8.00;3.13;;;18.90;99.90;;;;;;1039800;28;20436;-73
2022/05/15 02:45:43;;;;;;;5.85;3.15;;;18.90;99.90;;;;;;1039536;28;20052;-74
2022/05/15 02:46:14;;;;;;;7.83;3.43;;;18.90;99.90;;;;;;1039391;28;20137;-73